createdAt,value
2023-05-01T00:00:56.322Z,99949.83
2023-05-01T00:03:58.779Z,99954.81
2023-05-01T00:07:00.769Z,99956.35
2023-05-01T00:10:02.385Z,99957.23
2023-05-01T00:13:04.539Z,99956.73
2023-05-01T00:16:10.123Z,99957.06
2023-05-01T00:19:12.652Z,99946.14
2023-05-01T00:22:14.430Z,99949.38
2023-05-01T00:25:16.187Z,99950.91
2023-05-01T00:28:20.901Z,99958.23
2023-05-01T00:31:24.853Z,99960.81
2023-05-01T00:34:30.518Z,99960.85
2023-05-01T00:37:32.258Z,99966.98
2023-05-01T00:40:42.032Z,99968.01
2023-05-01T00:43:43.678Z,99969.21
2023-05-01T00:46:45.290Z,99967.67
2023-05-01T00:49:46.958Z,99969.38
2023-05-01T00:52:48.663Z,99968.00
2023-05-01T00:55:50.223Z,99965.63
2023-05-01T00:58:51.848Z,99969.72
2023-05-01T01:01:55.643Z,99967.33
2023-05-01T01:04:58.556Z,99968.70
2023-05-01T01:08:15.883Z,99970.74
2023-05-01T01:11:42.015Z,99969.37
2023-05-01T01:15:06.710Z,99971.92
2023-05-01T01:18:10.188Z,99969.04
2023-05-01T01:21:13.130Z,99968.52
2023-05-01T01:24:33.742Z,99970.06
2023-05-01T01:28:13.942Z,99971.94
2023-05-01T01:31:22.208Z,99976.88
2023-05-01T01:34:36.492Z,99974.83
2023-05-01T01:37:47.328Z,99971.77
2023-05-01T01:41:11.470Z,99973.13
2023-05-01T01:44:19.522Z,99968.70
2023-05-01T01:47:22.502Z,99969.05
2023-05-01T01:50:26.481Z,99964.97
2023-05-01T01:53:30.105Z,99966.50
2023-05-01T01:56:33.328Z,99961.05
2023-05-01T01:59:35.371Z,99959.00
2023-05-01T02:02:38.777Z,99959.84
2023-05-01T02:05:42.399Z,99964.77
2023-05-01T02:08:44.617Z,99961.17
2023-05-01T02:11:46.831Z,99956.91
2023-05-01T02:14:48.807Z,99954.36
2023-05-01T02:17:51.333Z,99952.98
2023-05-01T02:20:53.556Z,99951.95
2023-05-01T02:23:55.556Z,99949.89
2023-05-01T02:27:03.137Z,99948.86
2023-05-01T02:30:05.382Z,99952.08
2023-05-01T02:33:07.985Z,99950.20
2023-05-01T02:36:09.723Z,99948.66
2023-05-01T02:39:11.260Z,99947.95
2023-05-01T02:42:13.358Z,99946.09
2023-05-01T02:45:20.635Z,99942.66
2023-05-01T02:48:25.770Z,99948.27
2023-05-01T02:51:28.212Z,99943.14
2023-05-01T02:54:31.202Z,99946.23
2023-05-01T02:57:33.433Z,99947.39
2023-05-01T03:00:35.047Z,99947.20
2023-05-01T03:03:37.010Z,99955.35
2023-05-01T03:06:38.899Z,99956.71
2023-05-01T03:09:40.485Z,99952.97
2023-05-01T03:12:42.144Z,99950.23
2023-05-01T03:15:44.485Z,99947.67
2023-05-01T03:18:46.112Z,99946.98
2023-05-01T03:21:47.714Z,99942.39
2023-05-01T03:24:49.321Z,99940.04
2023-05-01T03:27:52.144Z,99936.10
2023-05-01T03:30:55.356Z,99931.32
2023-05-01T03:33:56.983Z,99927.77
2023-05-01T03:36:58.787Z,99923.06
2023-05-01T03:40:00.341Z,99923.41
2023-05-01T03:43:01.981Z,99926.17
2023-05-01T03:46:03.595Z,99927.73
2023-05-01T03:49:05.240Z,99925.73
2023-05-01T03:52:06.881Z,99931.02
2023-05-01T03:55:09.018Z,99930.88
2023-05-01T03:58:10.831Z,99930.88
2023-05-01T04:01:12.389Z,99927.65
2023-05-01T04:04:14.199Z,99926.80
2023-05-01T04:07:15.982Z,99925.27
2023-05-01T04:10:17.664Z,99923.88
2023-05-01T04:13:19.390Z,99923.36
2023-05-01T04:16:20.980Z,99923.20
2023-05-01T04:19:22.646Z,99928.98
2023-05-01T04:22:24.276Z,99928.14
2023-05-01T04:25:26.182Z,99930.02
2023-05-01T04:28:27.866Z,99932.60
2023-05-01T04:31:29.552Z,99928.33
2023-05-01T04:34:31.190Z,99928.23
2023-05-01T04:37:32.861Z,99925.16
2023-05-01T04:40:34.652Z,99921.63
2023-05-01T04:43:36.265Z,99922.54
2023-05-01T04:46:37.961Z,99917.83
2023-05-01T04:49:39.691Z,99914.33
2023-05-01T04:52:41.243Z,99912.80
2023-05-01T04:55:42.914Z,99907.85
2023-05-01T04:58:44.897Z,99908.70
2023-05-01T05:01:46.595Z,99911.63
2023-05-01T05:04:48.807Z,99914.33
2023-05-01T05:07:50.572Z,99915.41
2023-05-01T05:10:57.549Z,99912.40
2023-05-01T05:13:59.241Z,99908.44
2023-05-01T05:17:00.995Z,99914.86
2023-05-01T05:20:02.647Z,99913.75
2023-05-01T05:23:04.275Z,99907.81
2023-05-01T05:26:05.954Z,99906.76
2023-05-01T05:29:07.730Z,99903.91
2023-05-01T05:32:09.627Z,99901.40
2023-05-01T05:35:11.351Z,99896.84
2023-05-01T05:38:13.089Z,99900.54
2023-05-01T05:41:14.776Z,99902.70
2023-05-01T05:44:16.659Z,99904.83
2023-05-01T05:47:18.360Z,99909.39
2023-05-01T05:50:20.179Z,99913.41
2023-05-01T05:53:24.973Z,99914.21
2023-05-01T05:56:27.463Z,99911.93
2023-05-01T05:59:29.137Z,99916.95
2023-05-01T06:02:31.452Z,99919.27
2023-05-01T06:05:33.452Z,99915.32
2023-05-01T06:08:35.263Z,99914.92
2023-05-01T06:11:36.851Z,99914.09
2023-05-01T06:14:38.539Z,99918.23
2023-05-01T06:17:40.152Z,99917.76
2023-05-01T06:20:41.828Z,99915.28
2023-05-01T06:23:43.548Z,99919.13
2023-05-01T06:26:45.175Z,99918.52
2023-05-01T06:29:46.788Z,99909.91
2023-05-01T06:32:48.792Z,99912.13
2023-05-01T06:35:50.878Z,99912.20
2023-05-01T06:38:52.563Z,99910.71
2023-05-01T06:41:54.263Z,99910.29
2023-05-01T06:44:55.896Z,99912.94
2023-05-01T06:47:57.573Z,99915.88
2023-05-01T06:50:59.451Z,99913.94
2023-05-01T06:54:01.035Z,99912.52
2023-05-01T06:57:02.685Z,99911.21
2023-05-01T07:00:05.020Z,99907.16
2023-05-01T07:03:06.893Z,99900.04
2023-05-01T07:06:08.609Z,99899.90
2023-05-01T07:09:10.478Z,99903.47
2023-05-01T07:12:12.117Z,99900.66
2023-05-01T07:15:13.720Z,99901.88
2023-05-01T07:18:15.357Z,99903.91
2023-05-01T07:21:16.957Z,99895.31
2023-05-01T07:24:18.509Z,99899.67
2023-05-01T07:27:20.619Z,99900.14
2023-05-01T07:30:22.265Z,99895.18
2023-05-01T07:33:24.219Z,99899.42
2023-05-01T07:36:25.949Z,99892.13
2023-05-01T07:39:27.588Z,99897.73
2023-05-01T07:42:29.307Z,99891.31
2023-05-01T07:45:30.964Z,99892.00
2023-05-01T07:48:32.720Z,99887.08
2023-05-01T07:51:34.424Z,99887.92
2023-05-01T07:54:36.018Z,99892.70
2023-05-01T07:57:37.660Z,99893.25
2023-05-01T08:00:39.264Z,99890.66
2023-05-01T08:03:40.971Z,99892.98
2023-05-01T08:06:42.749Z,99886.52
2023-05-01T08:09:45.832Z,99883.30
2023-05-01T08:12:47.506Z,99881.62
2023-05-01T08:15:49.283Z,99884.71
2023-05-01T08:18:50.901Z,99885.98
2023-05-01T08:21:52.705Z,99885.85
2023-05-01T08:24:54.333Z,99885.29
2023-05-01T08:27:55.921Z,99884.54
2023-05-01T08:30:57.571Z,99883.20
2023-05-01T08:33:59.232Z,99885.95
2023-05-01T08:37:00.913Z,99884.08
2023-05-01T08:40:02.510Z,99878.87
2023-05-01T08:43:04.747Z,99878.05
2023-05-01T08:46:07.368Z,99878.98
2023-05-01T08:49:09.541Z,99874.15
2023-05-01T08:52:12.581Z,99872.86
2023-05-01T08:55:15.491Z,99874.98
2023-05-01T08:58:18.231Z,99871.80
2023-05-01T09:01:20.566Z,99871.59
2023-05-01T09:04:22.321Z,99876.59
2023-05-01T09:07:24.678Z,99878.20
2023-05-01T09:10:26.562Z,99868.52
2023-05-01T09:13:28.500Z,99871.52
2023-05-01T09:16:30.172Z,99863.41
2023-05-01T09:19:31.859Z,99859.27
2023-05-01T09:22:34.201Z,99856.84
2023-05-01T09:25:35.917Z,99855.28
2023-05-01T09:28:46.219Z,99855.39
2023-05-01T09:31:47.911Z,99845.63
2023-05-01T09:34:50.658Z,99845.81
2023-05-01T09:37:57.167Z,99840.77
2023-05-01T09:41:04.735Z,99834.45
2023-05-01T09:44:17.984Z,99828.72
2023-05-01T09:47:22.772Z,99829.70
2023-05-01T09:50:35.062Z,99828.59
2023-05-01T09:53:40.592Z,99820.73
2023-05-01T09:56:47.152Z,99818.41
2023-05-01T10:00:02.416Z,99816.63
2023-05-01T10:03:13.811Z,99814.36
2023-05-01T10:06:26.573Z,99813.86
2023-05-01T10:09:29.499Z,99810.87
2023-05-01T10:12:31.121Z,99808.02
2023-05-01T10:15:38.676Z,99801.23
2023-05-01T10:18:40.495Z,99796.76
2023-05-01T10:21:42.128Z,99795.34
2023-05-01T10:24:44.368Z,99794.67
2023-05-01T10:27:46.364Z,99790.25
2023-05-01T10:30:49.043Z,99789.18
2023-05-01T10:33:50.617Z,99788.99
2023-05-01T10:37:04.204Z,99783.50
2023-05-01T10:40:40.438Z,99781.90
2023-05-01T10:43:43.129Z,99776.48
2023-05-01T10:46:44.778Z,99778.20
2023-05-01T10:50:05.051Z,99774.20
2023-05-01T10:53:12.582Z,99770.11
2023-05-01T10:56:34.401Z,99763.78
2023-05-01T11:00:04.215Z,99763.80
2023-05-01T11:03:21.416Z,99754.08
2023-05-01T11:06:23.604Z,99755.19
2023-05-01T11:09:41.630Z,99752.37
2023-05-01T11:12:46.376Z,99747.95
2023-05-01T11:15:48.065Z,99745.41
2023-05-01T11:18:49.709Z,99749.41
2023-05-01T11:21:51.605Z,99747.63
2023-05-01T11:24:53.216Z,99735.84
2023-05-01T11:27:56.960Z,99738.84
2023-05-01T11:30:59.644Z,99731.83
2023-05-01T11:34:02.495Z,99729.30
2023-05-01T11:37:04.069Z,99729.28
2023-05-01T11:40:19.132Z,99718.33
2023-05-01T11:43:20.924Z,99717.04
2023-05-01T11:46:30.416Z,99714.39
2023-05-01T11:49:32.165Z,99706.29
2023-05-01T11:52:48.732Z,99698.59
2023-05-01T11:55:50.406Z,99692.49
2023-05-01T11:58:53.518Z,99695.62
2023-05-01T12:01:55.535Z,99690.67
2023-05-01T12:04:57.363Z,99690.48
2023-05-01T12:08:11.525Z,99692.68
2023-05-01T12:11:13.423Z,99685.47
2023-05-01T12:14:15.685Z,99684.89
2023-05-01T12:17:17.412Z,99681.09
2023-05-01T12:20:34.696Z,99679.66
2023-05-01T12:23:36.761Z,99677.00
2023-05-01T12:26:38.584Z,99669.59
2023-05-01T12:29:41.151Z,99662.35
2023-05-01T12:32:42.753Z,99663.02
2023-05-01T12:35:46.285Z,99658.97
2023-05-01T12:39:05.364Z,99654.36
2023-05-01T12:42:13.968Z,99649.77
2023-05-01T12:45:15.714Z,99654.00
2023-05-01T12:48:17.531Z,99649.64
2023-05-01T12:51:20.471Z,99641.70
2023-05-01T12:54:24.676Z,99633.99
2023-05-01T12:57:26.270Z,99632.00
2023-05-01T13:00:28.347Z,99626.95
2023-05-01T13:03:31.352Z,99622.67
2023-05-01T13:06:33.437Z,99621.77
2023-05-01T13:09:35.105Z,99615.31
2023-05-01T13:12:44.067Z,99618.73
2023-05-01T13:15:45.797Z,99614.20
2023-05-01T13:18:51.792Z,99617.52
2023-05-01T13:21:53.765Z,99614.36
2023-05-01T13:24:55.506Z,99611.57
2023-05-01T13:27:57.125Z,99607.66
2023-05-01T13:30:59.007Z,99602.00
2023-05-01T13:34:01.101Z,99595.11
2023-05-01T13:37:03.704Z,99589.23
2023-05-01T13:40:06.425Z,99586.55
2023-05-01T13:43:14.144Z,99588.04
2023-05-01T13:46:17.334Z,99579.84
2023-05-01T13:49:21.397Z,99569.16
2023-05-01T13:52:23.134Z,99571.17
2023-05-01T13:55:24.926Z,99572.67
2023-05-01T13:58:28.950Z,99570.41
2023-05-01T14:01:30.743Z,99562.27
2023-05-01T14:04:35.453Z,99555.18
2023-05-01T14:07:44.450Z,99555.80
2023-05-01T14:10:46.064Z,99550.48
2023-05-01T14:13:47.966Z,99551.23
2023-05-01T14:16:51.108Z,99548.54
2023-05-01T14:19:52.816Z,99539.96
2023-05-01T14:22:54.419Z,99533.70
2023-05-01T14:25:56.095Z,99530.47
2023-05-01T14:28:57.764Z,99530.92
2023-05-01T14:32:03.945Z,99524.68
2023-05-01T14:35:09.505Z,99526.58
2023-05-01T14:38:13.620Z,99519.70
2023-05-01T14:41:17.341Z,99525.87
2023-05-01T14:44:19.714Z,99522.74
2023-05-01T14:47:21.389Z,99526.71
2023-05-01T14:50:24.578Z,99516.86
2023-05-01T14:53:26.480Z,99509.59
2023-05-01T14:56:28.158Z,99511.02
2023-05-01T14:59:29.868Z,99503.29
2023-05-01T15:02:31.523Z,99502.58
2023-05-01T15:05:33.183Z,99495.61
2023-05-01T15:08:35.050Z,99493.80
2023-05-01T15:11:36.873Z,99493.74
2023-05-01T15:14:38.578Z,99492.34
2023-05-01T15:17:40.220Z,99489.05
2023-05-01T15:20:41.929Z,99488.27
2023-05-01T15:23:43.555Z,99488.94
2023-05-01T15:26:45.636Z,99488.38
2023-05-01T15:29:47.292Z,99488.32
2023-05-01T15:32:48.955Z,99485.20
2023-05-01T15:35:51.136Z,99477.83
2023-05-01T15:38:52.873Z,99472.15
2023-05-01T15:41:54.536Z,99467.42
2023-05-01T15:44:56.375Z,99462.23
2023-05-01T15:47:58.415Z,99459.98
2023-05-01T15:51:00.177Z,99459.70
2023-05-01T15:54:01.997Z,99458.77
2023-05-01T15:57:03.674Z,99460.32
2023-05-01T16:00:06.430Z,99455.06
2023-05-01T16:03:08.702Z,99454.34
2023-05-01T16:06:12.057Z,99459.46
2023-05-01T16:09:14.345Z,99453.70
2023-05-01T16:12:15.982Z,99451.43
2023-05-01T16:15:18.112Z,99445.02
2023-05-01T16:18:23.133Z,99442.89
2023-05-01T16:21:26.055Z,99440.44
2023-05-01T16:24:27.764Z,99446.73
2023-05-01T16:27:29.424Z,99441.30
2023-05-01T16:30:31.038Z,99438.88
2023-05-01T16:33:33.836Z,99440.30
2023-05-01T16:36:35.499Z,99433.27
2023-05-01T16:39:37.190Z,99437.66
2023-05-01T16:42:38.831Z,99432.70
2023-05-01T16:45:40.599Z,99428.48
2023-05-01T16:48:42.745Z,99427.29
2023-05-01T16:51:44.384Z,99429.42
2023-05-01T16:54:46.047Z,99422.63
2023-05-01T16:57:47.918Z,99426.09
2023-05-01T17:00:49.553Z,99425.46
2023-05-01T17:03:51.230Z,99428.30
2023-05-01T17:06:53.238Z,99427.42
2023-05-01T17:09:55.341Z,99423.67
2023-05-01T17:12:57.009Z,99419.43
2023-05-01T17:15:58.686Z,99417.69
2023-05-01T17:19:00.302Z,99418.84
2023-05-01T17:22:02.013Z,99423.35
2023-05-01T17:25:03.821Z,99422.20
2023-05-01T17:28:05.770Z,99424.60
2023-05-01T17:31:07.560Z,99425.73
2023-05-01T17:34:09.318Z,99419.85
2023-05-01T17:37:11.044Z,99416.89
2023-05-01T17:40:13.027Z,99418.72
2023-05-01T17:43:14.629Z,99415.17
2023-05-01T17:46:16.302Z,99413.63
2023-05-01T17:49:18.012Z,99413.59
2023-05-01T17:52:19.654Z,99409.63
2023-05-01T17:55:21.300Z,99409.48
2023-05-01T17:58:22.890Z,99411.41
2023-05-01T18:01:24.839Z,99414.69
2023-05-01T18:04:26.513Z,99414.91
2023-05-01T18:07:28.173Z,99415.48
2023-05-01T18:10:30.528Z,99418.88
2023-05-01T18:13:32.240Z,99419.77
2023-05-01T18:16:33.850Z,99415.36
2023-05-01T18:19:35.690Z,99416.89
2023-05-01T18:22:37.310Z,99416.52
2023-05-01T18:25:39.105Z,99416.09
2023-05-01T18:28:40.815Z,99413.02
2023-05-01T18:31:42.434Z,99413.34
2023-05-01T18:34:44.127Z,99413.44
2023-05-01T18:37:45.972Z,99410.96
2023-05-01T18:40:47.912Z,99410.66
2023-05-01T18:43:51.812Z,99410.11
2023-05-01T18:46:55.318Z,99413.50
2023-05-01T18:49:57.052Z,99415.38
2023-05-01T18:52:59.127Z,99417.33
2023-05-01T18:56:01.084Z,99415.94
2023-05-01T18:59:02.905Z,99418.04
2023-05-01T19:02:04.615Z,99417.02
2023-05-01T19:05:07.624Z,99420.42
2023-05-01T19:08:09.524Z,99420.38
2023-05-01T19:11:11.193Z,99415.79
2023-05-01T19:14:13.165Z,99416.28
2023-05-01T19:17:14.960Z,99416.86
2023-05-01T19:20:16.645Z,99411.98
2023-05-01T19:23:18.240Z,99412.48
2023-05-01T19:26:20.167Z,99408.84
2023-05-01T19:29:21.812Z,99408.66
2023-05-01T19:32:23.703Z,99410.75
2023-05-01T19:35:25.836Z,99407.89
2023-05-01T19:38:27.760Z,99406.77
2023-05-01T19:41:29.390Z,99408.81
2023-05-01T19:44:33.622Z,99405.88
2023-05-01T19:47:35.317Z,99404.14
2023-05-01T19:50:36.921Z,99404.59
2023-05-01T19:53:38.693Z,99398.89
2023-05-01T19:56:40.550Z,99395.09
2023-05-01T19:59:42.161Z,99397.96
2023-05-01T20:02:43.954Z,99389.70
2023-05-01T20:05:45.639Z,99389.80
2023-05-01T20:08:47.295Z,99385.18
2023-05-01T20:11:48.955Z,99384.09
2023-05-01T20:14:50.607Z,99383.31
2023-05-01T20:17:52.450Z,99382.84
2023-05-01T20:20:54.195Z,99382.90
2023-05-01T20:23:55.883Z,99382.16
2023-05-01T20:26:58.005Z,99380.04
2023-05-01T20:29:59.882Z,99381.25
2023-05-01T20:33:01.839Z,99383.15
2023-05-01T20:36:04.890Z,99382.73
2023-05-01T20:39:06.659Z,99376.88
2023-05-01T20:42:08.670Z,99379.08
2023-05-01T20:45:10.312Z,99381.17
2023-05-01T20:48:12.086Z,99382.61
2023-05-01T20:51:14.698Z,99385.48
2023-05-01T20:54:16.349Z,99387.63
2023-05-01T20:57:18.120Z,99383.13
2023-05-01T21:00:20.115Z,99380.56
2023-05-01T21:03:21.996Z,99377.63
2023-05-01T21:06:23.989Z,99381.33
2023-05-01T21:09:25.919Z,99384.02
2023-05-01T21:12:28.732Z,99384.76
2023-05-01T21:15:30.379Z,99388.36
2023-05-01T21:18:33.475Z,99390.90
2023-05-01T21:21:35.983Z,99389.20
2023-05-01T21:24:39.726Z,99389.94
2023-05-01T21:27:41.350Z,99395.41
2023-05-01T21:30:43.056Z,99394.74
2023-05-01T21:33:44.740Z,99392.02
2023-05-01T21:36:46.313Z,99394.23
2023-05-01T21:39:47.860Z,99395.51
2023-05-01T21:42:49.767Z,99395.50
2023-05-01T21:45:51.868Z,99400.56
2023-05-01T21:48:53.779Z,99403.38
2023-05-01T21:51:59.347Z,99407.61
2023-05-01T21:55:05.235Z,99406.74
2023-05-01T21:58:06.922Z,99407.45
2023-05-01T22:01:08.584Z,99410.38
2023-05-01T22:04:14.692Z,99410.95
2023-05-01T22:07:16.409Z,99419.20
2023-05-01T22:10:18.104Z,99422.30
2023-05-01T22:13:19.681Z,99422.02
2023-05-01T22:16:21.310Z,99423.46
2023-05-01T22:19:22.795Z,99430.84
2023-05-01T22:22:24.606Z,99431.56
2023-05-01T22:25:26.207Z,99430.54
2023-05-01T22:28:27.721Z,99428.19
2023-05-01T22:31:29.454Z,99429.42
2023-05-01T22:34:31.046Z,99426.06
2023-05-01T22:37:32.547Z,99427.92
2023-05-01T22:40:34.133Z,99430.54
2023-05-01T22:43:35.726Z,99431.61
2023-05-01T22:46:37.543Z,99431.45
2023-05-01T22:49:39.247Z,99430.08
2023-05-01T22:52:40.872Z,99428.25
2023-05-01T22:55:42.349Z,99430.16
2023-05-01T22:58:43.968Z,99432.65
2023-05-01T23:01:45.748Z,99436.60
2023-05-01T23:04:47.407Z,99438.39
2023-05-01T23:07:48.965Z,99436.89
2023-05-01T23:10:50.695Z,99441.32
2023-05-01T23:13:52.307Z,99443.91
2023-05-01T23:16:53.968Z,99443.71
2023-05-01T23:19:55.575Z,99446.07
2023-05-01T23:22:57.554Z,99445.72
2023-05-01T23:25:59.295Z,99451.07
2023-05-01T23:29:01.135Z,99450.59
2023-05-01T23:32:02.842Z,99449.13
2023-05-01T23:35:14.676Z,99449.05
2023-05-01T23:38:16.383Z,99452.16
2023-05-01T23:41:18.038Z,99450.59
2023-05-01T23:44:19.554Z,99447.00
2023-05-01T23:47:21.628Z,99451.88
2023-05-01T23:50:23.228Z,99450.62
2023-05-01T23:53:24.735Z,99452.00
2023-05-01T23:56:26.406Z,99455.27
2023-05-01T23:59:27.963Z,99452.14
